Grand Breaker — V7XF9 — position and weather

sailwx.info

Track history (hours):
 
Tides and Currents Weather Stations Pressure Air Temp Water Temp Dewpoint Dewpoint Depression Visibility Wind Speed Wind Dir Waves Ship Positions

Grand Breaker

Last reported at 2018-Jun-21 11:59 UTC. Time now 2018-Jun-25 02:04 UTC.
Position N 27°30' W 013°54'.

Length 190 m; draft 10.4 m.

Type: Cargo ship. MMSI: 538004469.

Date/timePositionNaut miles runAvg speedWind from/ knotsBaromVisibWave heightAir tempDewpointWater temp
2018-Jun-21 11:59N 27°30' W 013°54'  
2018-Jun-19 00:55N 36°07' W 005°22'0 0.1
2018-Jun-18 20:15N 36°07' W 005°22'0 0.1
2018-Jun-18 19:54N 36°07' W 005°22'0 0.0
2018-Jun-18 19:25N 36°07' W 005°22'0 0.1
2018-Jun-18 19:00N 36°07' W 005°22'0 0.1
2018-Jun-18 16:32N 36°07' W 005°22'1 3.8
2018-Jun-18 16:12N 36°05' W 005°22'1 3.9
2018-Jun-18 16:00N 36°05' W 005°21'4 7.5
2018-Jun-18 15:30N 36°05' W 005°16'4 0.4
2018-Jun-18 06:24N 36°08' W 005°13'0 0.7
2018-Jun-18 06:00N 36°08' W 005°12'0 0.6
2018-Jun-18 05:30N 36°08' W 005°12'0 0.7
2018-Jun-18 05:00N 36°08' W 005°12'0 0.4
2018-Jun-18 04:30N 36°08' W 005°11'0 0.6
2018-Jun-18 03:51N 36°08' W 005°12'0 0.7
2018-Jun-18 03:30N 36°07' W 005°12'0 0.3
2018-Jun-18 03:00N 36°07' W 005°12'0 0.6
2018-Jun-18 02:18N 36°08' W 005°11'0 1.3
2018-Jun-18 01:59N 36°08' W 005°11'2 3.8
2018-Jun-18 01:30N 36°10' W 005°11'3 4.0
2018-Jun-18 00:49N 36°13' W 005°11'0 1.0
2018-Jun-18 00:30N 36°13' W 005°11'0 0.9
2018-Jun-18 00:00N 36°13' W 005°11'2 0.5
2018-Jun-17 21:12N 36°13' W 005°09'0 0.6
2018-Jun-17 21:00N 36°13' W 005°09'0 0.8
2018-Jun-17 20:28N 36°13' W 005°08'0 0.5
2018-Jun-17 19:46N 36°13' W 005°08'0 0.2
2018-Jun-17 19:23N 36°13' W 005°08'1 2.0
2018-Jun-17 19:00N 36°12' W 005°08'2 4.5
2018-Jun-17 18:30N 36°11' W 005°05'17510.7
2018-Jun-17 02:11N 36°30' W 001°30'312.2
2018-Jun-17 01:56N 36°32' W 001°26'612.1
2018-Jun-17 01:28N 36°36' W 001°21'712.2
2018-Jun-17 00:54N 36°40' W 001°15'1212.5
2018-Jun-16 23:55N 36°48' W 001°03'612.4
2018-Jun-16 23:28N 36°51' W 000°57'612.1
2018-Jun-16 22:59N 36°55' W 000°52'611.9
2018-Jun-16 22:30N 36°59' W 000°46'1112.3
2018-Jun-16 21:35N 37°06' W 000°35'112.5
2018-Jun-16 21:30N 37°07' W 000°35'612.3
2018-Jun-16 21:00N 37°11' W 000°29'612.2
2018-Jun-16 20:30N 37°15' W 000°23'612.2
2018-Jun-16 20:00N 37°19' W 000°17'612.1
2018-Jun-16 19:30N 37°23' W 000°11'611.7
2018-Jun-16 19:00N 37°25' W 000°04'611.8
2018-Jun-16 18:30N 37°27' E 000°02'612.2
2018-Jun-16 18:00N 37°29' E 000°10'612.6
2018-Jun-16 17:30N 37°31' E 000°17'612.6
2018-Jun-16 17:00N 37°34' E 000°25'612.6
2018-Jun-16 16:30N 37°36' E 000°32'712.7
2018-Jun-16 15:59N 37°38' E 000°40'612.9
2018-Jun-16 15:29N 37°40' E 000°48'612.9
2018-Jun-16 15:00N 37°42' E 000°55'1712.9
2018-Jun-16 13:43N 37°48' E 001°15'312.9
2018-Jun-16 13:26N 37°49' E 001°19'4412.7
2018-Jun-16 09:57N 38°04' E 002°12'612.5
2018-Jun-16 09:30N 38°06' E 002°19'612.3
2018-Jun-16 09:00N 38°08' E 002°26'612.2
2018-Jun-16 08:30N 38°11' E 002°33'812.3
2018-Jun-16 07:52N 38°13' E 002°42'512.2
2018-Jun-16 07:26N 38°15' E 002°49'612.1
2018-Jun-16 06:59N 38°17' E 002°55'  
Track history (hours):
 
Tides and Currents Weather Stations Pressure Air Temp Water Temp Dewpoint Dewpoint Depression Visibility Wind Speed Wind Dir Waves Ship Positions

Grand Breaker

Last reported at 2018-Jun-21 11:59 UTC. Time now 2018-Jun-25 02:04 UTC.
Position N 27°30' W 013°54'.

Length 190 m; draft 10.4 m.

Type: Cargo ship. MMSI: 538004469.

Date/timePositionNaut miles runAvg speedWind from/ knotsBaromVisibWave heightAir tempDewpointWater temp
2018-Jun-21 11:59N 27°30' W 013°54'  
2018-Jun-19 00:55N 36°07' W 005°22'0 0.1
2018-Jun-18 20:15N 36°07' W 005°22'0 0.1
2018-Jun-18 19:54N 36°07' W 005°22'0 0.0
2018-Jun-18 19:25N 36°07' W 005°22'0 0.1
2018-Jun-18 19:00N 36°07' W 005°22'0 0.1
2018-Jun-18 16:32N 36°07' W 005°22'1 3.8
2018-Jun-18 16:12N 36°05' W 005°22'1 3.9
2018-Jun-18 16:00N 36°05' W 005°21'4 7.5
2018-Jun-18 15:30N 36°05' W 005°16'4 0.4
2018-Jun-18 06:24N 36°08' W 005°13'0 0.7
2018-Jun-18 06:00N 36°08' W 005°12'0 0.6
2018-Jun-18 05:30N 36°08' W 005°12'0 0.7
2018-Jun-18 05:00N 36°08' W 005°12'0 0.4
2018-Jun-18 04:30N 36°08' W 005°11'0 0.6
2018-Jun-18 03:51N 36°08' W 005°12'0 0.7
2018-Jun-18 03:30N 36°07' W 005°12'0 0.3
2018-Jun-18 03:00N 36°07' W 005°12'0 0.6
2018-Jun-18 02:18N 36°08' W 005°11'0 1.3
2018-Jun-18 01:59N 36°08' W 005°11'2 3.8
2018-Jun-18 01:30N 36°10' W 005°11'3 4.0
2018-Jun-18 00:49N 36°13' W 005°11'0 1.0
2018-Jun-18 00:30N 36°13' W 005°11'0 0.9
2018-Jun-18 00:00N 36°13' W 005°11'2 0.5
2018-Jun-17 21:12N 36°13' W 005°09'0 0.6
2018-Jun-17 21:00N 36°13' W 005°09'0 0.8
2018-Jun-17 20:28N 36°13' W 005°08'0 0.5
2018-Jun-17 19:46N 36°13' W 005°08'0 0.2
2018-Jun-17 19:23N 36°13' W 005°08'1 2.0
2018-Jun-17 19:00N 36°12' W 005°08'2 4.5
2018-Jun-17 18:30N 36°11' W 005°05'17510.7
2018-Jun-17 02:11N 36°30' W 001°30'312.2
2018-Jun-17 01:56N 36°32' W 001°26'612.1
2018-Jun-17 01:28N 36°36' W 001°21'712.2
2018-Jun-17 00:54N 36°40' W 001°15'1212.5
2018-Jun-16 23:55N 36°48' W 001°03'612.4
2018-Jun-16 23:28N 36°51' W 000°57'612.1
2018-Jun-16 22:59N 36°55' W 000°52'611.9
2018-Jun-16 22:30N 36°59' W 000°46'1112.3
2018-Jun-16 21:35N 37°06' W 000°35'112.5
2018-Jun-16 21:30N 37°07' W 000°35'612.3
2018-Jun-16 21:00N 37°11' W 000°29'612.2
2018-Jun-16 20:30N 37°15' W 000°23'612.2
2018-Jun-16 20:00N 37°19' W 000°17'612.1
2018-Jun-16 19:30N 37°23' W 000°11'611.7
2018-Jun-16 19:00N 37°25' W 000°04'611.8
2018-Jun-16 18:30N 37°27' E 000°02'612.2
2018-Jun-16 18:00N 37°29' E 000°10'612.6
2018-Jun-16 17:30N 37°31' E 000°17'612.6
2018-Jun-16 17:00N 37°34' E 000°25'612.6
2018-Jun-16 16:30N 37°36' E 000°32'712.7
2018-Jun-16 15:59N 37°38' E 000°40'612.9
2018-Jun-16 15:29N 37°40' E 000°48'612.9
2018-Jun-16 15:00N 37°42' E 000°55'1712.9
2018-Jun-16 13:43N 37°48' E 001°15'312.9
2018-Jun-16 13:26N 37°49' E 001°19'4412.7
2018-Jun-16 09:57N 38°04' E 002°12'612.5
2018-Jun-16 09:30N 38°06' E 002°19'612.3
2018-Jun-16 09:00N 38°08' E 002°26'612.2
2018-Jun-16 08:30N 38°11' E 002°33'812.3
2018-Jun-16 07:52N 38°13' E 002°42'512.2
2018-Jun-16 07:26N 38°15' E 002°49'612.1
2018-Jun-16 06:59N 38°17' E 002°55'  

Dump ship's entire track history